Time;durP1;ratioP1;P1;durP2;ratioP2;P2;SDS_P1;SDS_P2;PMS_P1;PMS_P2;Temp;Humidity;BMP_temperature;BMP_pressure;BME280_temperature;BME280_humidity;BME280_pressure;Samples;Min_cycle;Max_cycle;Signal;HPM_P1;HPM_P2
2023/04/15 00:00:20;;;;;;;25.92;14.73;;;;;;;9.38;nan;98571.19;5041021;28;20047;-80
2023/04/15 00:03:04;;;;;;;26.70;13.82;;;;;;;9.35;nan;98565.53;5038578;28;20454;-80
2023/04/15 00:05:49;;;;;;;23.20;12.93;;;;;;;9.23;nan;98579.19;5042631;28;20036;-80
2023/04/15 00:08:33;;;;;;;24.33;13.20;;;;;;;9.50;nan;98570.59;5045027;28;20052;-79
2023/04/15 00:11:18;;;;;;;25.17;14.02;;;;;;;9.71;nan;98572.25;5046342;28;20085;-80
2023/04/15 00:14:03;;;;;;;21.60;11.57;;;;;;;9.25;nan;98579.84;5044304;28;20215;-80
2023/04/15 00:16:54;;;;;;;20.10;12.25;;;;;;;9.11;nan;98580.78;5041288;28;20118;-80
2023/04/15 00:19:38;;;;;;;20.73;11.95;;;;;;;9.51;nan;98586.13;5043869;28;20505;-80
2023/04/15 00:22:21;;;;;;;23.80;14.30;;;;;;;9.41;nan;98589.13;5043731;28;20596;-80
2023/04/15 00:25:06;;;;;;;22.10;12.70;;;;;;;9.21;nan;98604.78;5043142;28;20402;-80
2023/04/15 00:27:50;;;;;;;21.13;12.95;;;;;;;9.07;nan;98606.53;5039388;28;20118;-79
2023/04/15 00:30:34;;;;;;;21.13;12.18;;;;;;;9.31;nan;98606.22;5036512;28;20040;-79
2023/04/15 00:33:18;;;;;;;23.50;13.38;;;;;;;8.98;nan;98608.50;5037922;28;20181;-77
2023/04/15 00:36:03;;;;;;;22.98;14.18;;;;;;;9.25;nan;98611.25;5042517;28;20137;-78
2023/04/15 00:38:47;;;;;;;25.85;14.43;;;;;;;9.03;nan;98622.81;5046443;28;20179;-78
2023/04/15 00:41:32;;;;;;;22.65;13.43;;;;;;;8.84;nan;98612.88;5049050;28;20060;-79
2023/04/15 00:44:17;;;;;;;24.52;15.23;;;;;;;9.24;nan;98620.13;5044615;28;20087;-79
2023/04/15 00:47:03;;;;;;;19.60;10.93;;;;;;;8.79;nan;98622.31;5047036;28;20071;-79
2023/04/15 00:49:47;;;;;;;16.70;10.25;;;;;;;8.82;nan;98614.91;5047810;28;20043;-79
2023/04/15 00:52:31;;;;;;;17.98;10.45;;;;;;;9.01;nan;98615.19;5037634;28;20119;-82
2023/04/15 00:55:15;;;;;;;15.30;9.20;;;;;;;8.79;nan;98635.41;5035587;28;20055;-76
2023/04/15 00:57:59;;;;;;;19.90;10.30;;;;;;;8.87;nan;98632.63;5039788;28;20040;-77
2023/04/15 01:00:43;;;;;;;16.85;9.82;;;;;;;9.09;nan;98640.41;5037139;28;20106;-77
2023/04/15 01:03:28;;;;;;;15.80;8.65;;;;;;;9.29;nan;98645.69;5040946;28;20571;-76
2023/04/15 01:06:13;;;;;;;16.95;9.50;;;;;;;8.93;nan;98658.03;5041659;28;20050;-76
2023/04/15 01:08:57;;;;;;;16.80;9.07;;;;;;;9.41;nan;98664.28;5043198;28;20103;-77
2023/04/15 01:11:41;;;;;;;18.88;10.55;;;;;;;9.19;nan;98659.16;5040239;28;20401;-77
2023/04/15 01:14:26;;;;;;;16.45;9.23;;;;;;;9.06;nan;98666.97;5039656;28;20503;-79
2023/04/15 01:17:11;;;;;;;17.05;10.65;;;;;;;9.32;nan;98673.31;5036712;28;20044;-77
2023/04/15 01:19:58;;;;;;;20.88;11.43;;;;;;;9.21;nan;98670.25;5040217;28;20163;-77
2023/04/15 01:22:44;;;;;;;22.00;11.48;;;;;;;8.95;nan;98684.81;5037929;28;20079;-77
2023/04/15 01:25:32;;;;;;;22.75;12.15;;;;;;;8.78;nan;98686.13;5048389;28;20399;-76
2023/04/15 01:28:16;;;;;;;21.35;12.70;;;;;;;8.98;nan;98681.81;5040668;28;20525;-76
2023/04/15 01:31:08;;;;;;;22.50;13.25;;;;;;;8.81;nan;98704.06;5042418;28;20086;-77
2023/04/15 01:33:52;;;;;;;23.85;13.55;;;;;;;9.16;nan;98706.69;5036595;28;20095;-76
2023/04/15 01:36:36;;;;;;;24.70;13.65;;;;;;;8.91;nan;98704.53;5040662;28;20546;-77
2023/04/15 01:39:20;;;;;;;26.40;14.63;;;;;;;9.27;nan;98714.00;5038591;28;20502;-77
2023/04/15 01:42:04;;;;;;;28.45;15.95;;;;;;;9.10;nan;98710.09;5037857;28;20087;-77
2023/04/15 01:44:48;;;;;;;25.75;14.98;;;;;;;9.05;nan;98717.72;5042911;28;20063;-76
2023/04/15 01:47:32;;;;;;;27.25;15.40;;;;;;;8.92;nan;98721.84;5040223;28;20044;-75
2023/04/15 01:50:16;;;;;;;27.42;15.40;;;;;;;8.99;nan;98724.53;5041803;28;20553;-76
2023/04/15 01:53:00;;;;;;;27.27;15.55;;;;;;;8.86;nan;98726.03;5041240;28;20131;-76
2023/04/15 01:55:44;;;;;;;29.58;16.67;;;;;;;8.78;nan;98733.22;5041261;28;20697;-75
2023/04/15 01:58:29;;;;;;;33.28;17.58;;;;;;;8.69;nan;98730.75;5038335;28;20043;-76
2023/04/15 02:01:13;;;;;;;29.02;15.93;;;;;;;9.05;nan;98733.44;5041723;28;20044;-76
2023/04/15 02:03:57;;;;;;;32.15;17.80;;;;;;;8.90;nan;98742.19;5041277;28;20090;-75
2023/04/15 02:06:42;;;;;;;29.90;16.92;;;;;;;9.14;nan;98737.50;5041290;28;20039;-75
2023/04/15 02:09:26;;;;;;;32.03;17.85;;;;;;;9.08;nan;98739.06;5041781;28;20127;-76
2023/04/15 02:12:12;;;;;;;31.88;16.92;;;;;;;9.26;nan;98749.06;5039318;28;20521;-76
2023/04/15 02:14:56;;;;;;;31.98;17.65;;;;;;;9.11;nan;98753.59;5040850;28;20527;-76
2023/04/15 02:17:44;;;;;;;32.72;18.33;;;;;;;8.84;nan;98748.97;5042135;28;20250;-76
2023/04/15 02:20:29;;;;;;;30.33;17.02;;;;;;;8.78;nan;98759.41;5040142;28;20502;-75
2023/04/15 02:23:13;;;;;;;29.17;17.42;;;;;;;9.09;nan;98760.84;5041103;28;20115;-75
2023/04/15 02:25:58;;;;;;;31.50;17.45;;;;;;;9.21;nan;98754.03;5038027;28;20087;-75
2023/04/15 02:28:42;;;;;;;29.65;17.50;;;;;;;9.15;nan;98765.28;5037139;28;20051;-76
2023/04/15 02:31:26;;;;;;;31.00;17.08;;;;;;;8.89;nan;98761.50;5036259;28;20510;-76
2023/04/15 02:34:10;;;;;;;26.90;16.33;;;;;;;8.89;nan;98766.75;5043735;28;20045;-76
2023/04/15 02:36:56;;;;;;;27.45;15.63;;;;;;;8.79;nan;98767.06;5042146;28;20059;-76
2023/04/15 02:39:39;;;;;;;25.23;14.73;;;;;;;8.71;nan;98775.88;5037241;28;20044;-77
2023/04/15 02:42:26;;;;;;;26.70;15.23;;;;;;;8.57;nan;98774.94;5043782;28;20040;-78
2023/04/15 02:45:11;;;;;;;21.75;13.88;;;;;;;8.28;nan;98771.41;5039510;28;20398;-77
2023/04/15 02:47:55;;;;;;;22.48;12.95;;;;;;;8.42;nan;98780.19;5043088;28;20045;-78
2023/04/15 02:50:39;;;;;;;22.35;13.75;;;;;;;8.88;nan;98787.84;5046466;28;20440;-77
2023/04/15 02:53:24;;;;;;;24.08;15.00;;;;;;;8.65;nan;98796.75;5040645;28;20044;-78
2023/04/15 02:56:10;;;;;;;28.75;16.88;;;;;;;8.72;nan;98789.75;5046439;28;20152;-77
2023/04/15 02:58:55;;;;;;;31.02;18.48;;;;;;;8.86;nan;98798.53;5043106;28;20047;-77
2023/04/15 03:01:39;;;;;;;27.77;16.50;;;;;;;8.84;nan;98800.50;5041833;28;20057;-80
2023/04/15 03:04:23;;;;;;;26.63;16.73;;;;;;;9.29;nan;98803.69;5043258;28;20040;-77
2023/04/15 03:07:07;;;;;;;29.92;17.77;;;;;;;9.10;nan;98809.59;5045501;28;20075;-77
2023/04/15 03:09:51;;;;;;;32.95;19.10;;;;;;;9.12;nan;98812.81;5049849;28;20039;-80
2023/04/15 03:12:35;;;;;;;33.38;19.17;;;;;;;9.19;nan;98818.09;5032673;28;20418;-80
2023/04/15 03:15:19;;;;;;;31.73;19.17;;;;;;;9.31;nan;98813.16;5045240;28;20060;-77
2023/04/15 03:18:03;;;;;;;42.05;21.70;;;;;;;8.82;nan;98812.97;5047163;28;20035;-80
2023/04/15 03:20:47;;;;;;;42.60;23.25;;;;;;;8.79;nan;98823.81;5043993;28;20083;-78
2023/04/15 03:23:32;;;;;;;33.88;19.63;;;;;;;8.84;nan;98826.69;5045210;28;20438;-79
2023/04/15 03:26:29;;;;;;;38.95;21.02;;;;;;;9.02;nan;98843.75;5046198;28;20410;-79
2023/04/15 03:29:13;;;;;;;32.05;18.17;;;;;;;8.94;nan;98837.66;5043179;28;20084;-79
2023/04/15 03:31:57;;;;;;;33.08;18.50;;;;;;;8.96;nan;98848.75;5042211;28;20094;-77
2023/04/15 03:34:41;;;;;;;30.23;17.98;;;;;;;8.88;nan;98841.03;5043374;28;20098;-78
2023/04/15 03:37:26;;;;;;;32.40;18.00;;;;;;;9.09;nan;98847.25;5044249;28;20570;-78
2023/04/15 03:40:11;;;;;;;33.85;18.70;;;;;;;9.05;nan;98853.84;5040595;28;20052;-78
2023/04/15 03:42:55;;;;;;;33.58;17.92;;;;;;;9.05;nan;98854.66;5043083;28;20506;-77
2023/04/15 03:45:39;;;;;;;35.78;20.17;;;;;;;8.89;nan;98855.75;5041798;28;20044;-79
2023/04/15 03:48:23;;;;;;;30.48;17.75;;;;;;;8.79;nan;98853.44;5039198;28;20106;-78
2023/04/15 03:51:07;;;;;;;27.58;16.17;;;;;;;8.73;nan;98856.78;5046804;28;20048;-78
2023/04/15 03:53:51;;;;;;;27.25;16.30;;;;;;;8.32;nan;98850.31;5039588;28;20111;-77
2023/04/15 03:56:35;;;;;;;25.98;15.57;;;;;;;8.62;nan;98847.63;5045969;28;20197;-78
2023/04/15 03:59:19;;;;;;;25.20;13.85;;;;;;;8.62;nan;98857.28;5047160;28;20043;-79
2023/04/15 04:02:03;;;;;;;24.05;14.77;;;;;;;8.39;nan;98853.81;5040701;28;20117;-79
2023/04/15 04:04:47;;;;;;;26.73;15.10;;;;;;;8.35;nan;98870.88;5046724;28;20036;-79
2023/04/15 04:07:31;;;;;;;23.60;13.45;;;;;;;8.13;nan;98868.19;5043149;28;20441;-79
2023/04/15 04:10:15;;;;;;;21.67;12.77;;;;;;;8.33;nan;98866.81;5045953;28;20075;-78
2023/04/15 04:13:00;;;;;;;19.73;11.70;;;;;;;8.29;nan;98869.00;5044639;28;20451;-78
2023/04/15 04:15:44;;;;;;;21.30;12.82;;;;;;;8.60;nan;98872.38;5041335;28;20163;-78
2023/04/15 04:18:28;;;;;;;24.23;13.18;;;;;;;8.67;nan;98873.22;5039908;28;20609;-78
2023/04/15 04:21:12;;;;;;;22.67;12.68;;;;;;;8.78;nan;98887.63;5044183;28;20067;-78
2023/04/15 04:23:57;;;;;;;23.80;13.50;;;;;;;8.66;nan;98888.13;5041275;28;20044;-79
2023/04/15 04:26:41;;;;;;;22.10;12.80;;;;;;;8.35;nan;98893.56;5044324;28;20048;-78
2023/04/15 04:29:25;;;;;;;21.95;12.32;;;;;;;8.34;nan;98900.63;5045934;28;20044;-78
2023/04/15 04:32:10;;;;;;;20.70;12.52;;;;;;;8.54;nan;98907.91;5043482;28;20094;-78
2023/04/15 04:34:54;;;;;;;22.10;12.48;;;;;;;8.26;nan;98904.16;5041596;28;20092;-79
2023/04/15 04:37:38;;;;;;;22.73;12.90;;;;;;;8.38;nan;98907.09;5041304;28;20136;-78
2023/04/15 04:40:22;;;;;;;22.23;12.77;;;;;;;8.18;nan;98909.50;5042440;28;20573;-78
2023/04/15 04:43:06;;;;;;;25.05;14.35;;;;;;;8.18;nan;98916.50;5040657;28;20147;-78
2023/04/15 04:45:50;;;;;;;25.33;14.38;;;;;;;8.31;nan;98910.63;5041541;28;20189;-78
2023/04/15 04:48:34;;;;;;;24.58;12.60;;;;;;;8.47;nan;98915.66;5038186;28;20469;-78
2023/04/15 04:51:18;;;;;;;23.73;13.07;;;;;;;8.47;nan;98923.50;5045527;28;20493;-78
2023/04/15 04:54:03;;;;;;;25.40;13.77;;;;;;;8.58;nan;98919.63;5042319;28;20039;-78
2023/04/15 04:56:47;;;;;;;24.10;13.68;;;;;;;8.25;nan;98933.91;5041886;28;20040;-78
2023/04/15 04:59:30;;;;;;;23.98;14.25;;;;;;;8.24;nan;98936.69;5040097;28;20090;-78
2023/04/15 05:02:14;;;;;;;25.95;14.40;;;;;;;8.26;nan;98938.16;5041248;28;20040;-78
2023/04/15 05:04:58;;;;;;;23.70;14.15;;;;;;;8.68;nan;98941.09;5040402;28;20040;-78
2023/04/15 05:07:43;;;;;;;25.75;14.55;;;;;;;8.49;nan;98942.44;5046072;28;20116;-78
2023/04/15 05:10:27;;;;;;;25.05;14.35;;;;;;;8.29;nan;98944.81;5041395;28;20510;-78
2023/04/15 05:13:11;;;;;;;25.52;13.60;;;;;;;8.46;nan;98944.63;5041929;28;20099;-78
2023/04/15 05:15:55;;;;;;;23.98;12.90;;;;;;;8.22;nan;98949.97;5042990;28;20067;-76
2023/04/15 05:18:39;;;;;;;25.30;13.00;;;;;;;8.10;nan;98961.88;5037069;28;20102;-77
2023/04/15 05:21:23;;;;;;;25.55;14.77;;;;;;;7.83;nan;98970.13;5039572;28;20128;-77
2023/04/15 05:24:07;;;;;;;28.23;14.68;;;;;;;7.93;nan;98982.13;5035514;28;20398;-78
2023/04/15 05:26:51;;;;;;;28.45;14.25;;;;;;;8.19;nan;98980.88;5037810;28;20047;-78
2023/04/15 05:29:35;;;;;;;29.60;15.73;;;;;;;8.00;nan;98996.09;5039381;28;20167;-77
2023/04/15 05:32:19;;;;;;;28.13;16.38;;;;;;;8.11;nan;98998.28;5044635;28;20098;-77
2023/04/15 05:35:04;;;;;;;27.67;15.07;;;;;;;8.08;nan;99006.50;5038368;28;20048;-77
2023/04/15 05:37:48;;;;;;;29.30;15.43;;;;;;;8.50;nan;99019.16;5039198;28;20048;-78
2023/04/15 05:40:32;;;;;;;27.15;15.10;;;;;;;8.55;nan;99022.03;5040916;28;20039;-78
2023/04/15 05:43:16;;;;;;;27.83;15.60;;;;;;;8.65;nan;99027.81;5040706;28;20045;-78
2023/04/15 05:46:00;;;;;;;29.20;16.40;;;;;;;8.70;nan;99028.06;5039122;28;20040;-78
2023/04/15 05:48:44;;;;;;;27.35;15.85;;;;;;;8.83;nan;99030.03;5040126;28;20086;-78
2023/04/15 05:51:29;;;;;;;28.92;16.20;;;;;;;8.94;nan;99041.00;5040801;28;20036;-78
2023/04/15 05:54:13;;;;;;;27.80;15.63;;;;;;;8.70;nan;99056.88;5040640;28;20091;-78
2023/04/15 05:56:57;;;;;;;28.70;15.75;;;;;;;9.12;nan;99059.75;5043120;28;20052;-78
2023/04/15 05:59:41;;;;;;;30.83;17.05;;;;;;;9.16;nan;99062.03;5039570;28;20133;-78
2023/04/15 06:02:26;;;;;;;26.30;14.93;;;;;;;9.19;nan;99064.28;5041003;28;20064;-77
2023/04/15 06:05:10;;;;;;;26.05;15.32;;;;;;;9.36;nan;99070.09;5040235;28;20572;-77
2023/04/15 06:07:55;;;;;;;28.88;15.73;;;;;;;9.14;nan;99070.88;5038193;28;20047;-78
2023/04/15 06:10:39;;;;;;;30.10;16.35;;;;;;;9.42;nan;99085.88;5044375;28;20140;-78
2023/04/15 06:13:24;;;;;;;27.70;15.52;;;;;;;9.48;nan;99088.75;5042758;28;20102;-79
2023/04/15 06:16:08;;;;;;;25.15;14.98;;;;;;;9.54;nan;99086.19;5043839;28;20131;-79
2023/04/15 06:18:52;;;;;;;25.27;14.07;;;;;;;9.64;nan;99104.25;5036143;28;20041;-78
2023/04/15 06:21:37;;;;;;;23.15;14.48;;;;;;;9.77;nan;99108.00;5047324;28;20048;-79
2023/04/15 06:24:21;;;;;;;27.15;14.80;;;;;;;9.44;nan;99114.53;5037747;28;20043;-79
2023/04/15 06:27:05;;;;;;;24.83;14.95;;;;;;;10.02;nan;99116.25;5045262;28;20064;-79
2023/04/15 06:29:50;;;;;;;23.17;14.38;;;;;;;10.20;nan;99115.81;5043769;28;20048;-80
2023/04/15 06:32:34;;;;;;;25.35;14.52;;;;;;;9.97;nan;99123.88;5048826;28;20032;-80
2023/04/15 06:35:18;;;;;;;23.25;14.70;;;;;;;10.11;nan;99123.00;5045715;28;20124;-80
2023/04/15 06:38:02;;;;;;;22.55;13.93;;;;;;;10.11;nan;99132.69;5045852;28;20462;-80
2023/04/15 06:40:46;;;;;;;22.48;13.52;;;;;;;10.43;nan;99138.41;5043069;28;20040;-79
2023/04/15 06:43:30;;;;;;;22.55;13.82;;;;;;;10.57;nan;99136.69;5042781;28;20091;-80
2023/04/15 06:46:14;;;;;;;24.08;13.75;;;;;;;10.24;nan;99138.03;5044014;28;20044;-79
2023/04/15 06:48:58;;;;;;;25.20;14.63;;;;;;;10.39;nan;99142.41;5048496;28;20032;-80
2023/04/15 06:51:42;;;;;;;23.33;15.23;;;;;;;10.26;nan;99143.09;5048673;28;20122;-79
2023/04/15 06:54:26;;;;;;;23.25;13.57;;;;;;;9.86;nan;99148.81;5045926;28;20047;-80
2023/04/15 06:57:10;;;;;;;22.65;14.15;;;;;;;10.27;nan;99149.97;5048183;28;20082;-79
2023/04/15 06:59:55;;;;;;;22.90;13.32;;;;;;;10.41;nan;99162.22;5044714;28;20503;-78
2023/04/15 07:02:39;;;;;;;23.80;13.55;;;;;;;10.50;nan;99159.47;5045098;28;20086;-80
2023/04/15 07:05:24;;;;;;;23.80;13.48;;;;;;;10.65;nan;99181.19;5048133;28;20068;-79
2023/04/15 07:08:08;;;;;;;25.08;13.85;;;;;;;10.80;nan;99185.50;5044601;28;20313;-80
2023/04/15 07:10:52;;;;;;;24.00;14.40;;;;;;;11.03;nan;99195.75;5041266;28;20040;-79
2023/04/15 07:13:37;;;;;;;23.45;13.50;;;;;;;11.08;nan;99188.09;5046416;28;20525;-80
2023/04/15 07:16:21;;;;;;;23.95;14.77;;;;;;;11.06;nan;99205.06;5049009;28;20080;-79
2023/04/15 07:19:07;;;;;;;24.40;14.23;;;;;;;11.03;nan;99198.38;5043323;28;21374;-82
2023/04/15 07:21:51;;;;;;;21.08;13.75;;;;;;;11.32;nan;99207.03;5039545;28;20048;-81
2023/04/15 07:24:35;;;;;;;27.98;15.10;;;;;;;11.28;nan;99214.47;5045968;28;20053;-80
2023/04/15 07:27:19;;;;;;;20.30;13.18;;;;;;;11.58;nan;99214.19;5045705;28;20099;-80
2023/04/15 07:30:04;;;;;;;23.88;13.68;;;;;;;11.72;nan;99219.50;5038838;28;20115;-79
2023/04/15 07:32:48;;;;;;;24.80;13.68;;;;;;;11.80;nan;99229.88;5048777;28;20045;-82
2023/04/15 07:35:32;;;;;;;24.10;14.88;;;;;;;11.81;nan;99244.63;5041662;28;20048;-78
2023/04/15 07:38:16;;;;;;;27.95;14.98;;;;;;;11.08;nan;99240.63;5043677;28;20489;-79
2023/04/15 07:41:00;;;;;;;23.95;13.10;;;;;;;11.35;nan;99258.38;5048695;28;20107;-80
2023/04/15 07:43:44;;;;;;;20.20;13.13;;;;;;;10.76;nan;99263.03;5039207;28;20044;-77
2023/04/15 07:46:28;;;;;;;21.95;11.63;;;;;;;11.40;nan;99269.13;5045248;28;20048;-79
2023/04/15 07:49:13;;;;;;;22.48;13.15;;;;;;;11.60;nan;99273.69;5036668;28;20561;-80
2023/04/15 07:51:58;;;;;;;20.42;12.27;;;;;;;11.62;nan;99274.28;5040560;28;20044;-77
2023/04/15 07:54:44;;;;;;;22.27;13.15;;;;;;;11.92;nan;99276.63;5045321;28;20451;-77
2023/04/15 07:57:28;;;;;;;23.75;12.80;;;;;;;12.36;nan;99291.13;5041930;28;20132;-80
2023/04/15 08:00:15;;;;;;;21.27;12.88;;;;;;;12.64;nan;99305.97;5042344;28;20649;-82
2023/04/15 08:02:59;;;;;;;22.15;12.70;;;;;;;12.11;nan;99299.56;5039130;28;20047;-82
2023/04/15 08:05:43;;;;;;;20.27;11.40;;;;;;;11.98;nan;99297.69;5042624;28;20410;-82
2023/04/15 08:08:27;;;;;;;17.85;11.35;;;;;;;11.92;nan;99298.50;5036916;28;20553;-82
2023/04/15 08:11:12;;;;;;;19.55;11.57;;;;;;;12.03;nan;99301.56;5038323;28;20174;-81
2023/04/15 08:13:56;;;;;;;20.15;12.80;;;;;;;11.73;nan;99307.09;5040444;28;20375;-78
2023/04/15 08:16:40;;;;;;;17.10;10.93;;;;;;;12.46;nan;99311.00;5044853;28;20106;-80
2023/04/15 08:19:24;;;;;;;18.35;12.00;;;;;;;12.92;nan;99314.69;5038450;28;20052;-81
2023/04/15 08:22:09;;;;;;;15.93;11.27;;;;;;;12.78;nan;99316.50;5039457;28;20095;-81
2023/04/15 08:24:53;;;;;;;17.00;10.98;;;;;;;12.89;nan;99313.25;5045013;28;20040;-81
2023/04/15 08:27:37;;;;;;;15.40;10.48;;;;;;;12.85;nan;99322.59;5039950;28;20515;-80
2023/04/15 08:30:27;;;;;;;16.52;11.73;;;;;;;12.73;nan;99330.28;5039603;28;20107;-79
2023/04/15 08:33:11;;;;;;;19.02;11.43;;;;;;;13.33;nan;99331.25;5037748;28;20174;-79
2023/04/15 08:35:56;;;;;;;18.92;11.68;;;;;;;13.31;nan;99331.47;5037746;28;20080;-79
2023/04/15 08:38:40;;;;;;;18.70;11.35;;;;;;;13.46;nan;99331.28;5039078;28;20107;-78
2023/04/15 08:41:26;;;;;;;17.42;10.98;;;;;;;12.97;nan;99331.53;5040161;28;20040;-80
2023/04/15 08:44:10;;;;;;;16.33;10.32;;;;;;;13.21;nan;99334.53;5039851;28;20043;-79
2023/04/15 08:46:55;;;;;;;13.95;9.57;;;;;;;13.50;nan;99345.66;5039797;28;20171;-80
2023/04/15 08:49:42;;;;;;;16.95;9.52;;;;;;;13.65;nan;99353.34;5036401;28;20091;-80
2023/04/15 08:52:26;;;;;;;14.27;9.48;;;;;;;12.99;nan;99366.38;5050202;28;20040;-79
2023/04/15 08:55:11;;;;;;;17.35;9.90;;;;;;;14.27;nan;99365.31;5045348;28;20135;-79
2023/04/15 08:57:56;;;;;;;14.98;9.60;;;;;;;13.48;nan;99374.06;5044321;28;20078;-81
2023/04/15 09:00:40;;;;;;;13.95;9.07;;;;;;;13.86;nan;99369.94;5041881;28;20403;-80
2023/04/15 09:03:25;;;;;;;13.70;9.70;;;;;;;14.40;nan;99372.34;5042911;28;20084;-80
2023/04/15 09:06:10;;;;;;;15.38;10.25;;;;;;;14.18;nan;99377.13;5046135;28;20068;-80
2023/04/15 09:08:54;;;;;;;17.25;10.95;;;;;;;13.92;nan;99376.19;5040170;28;20072;-79
2023/04/15 09:11:39;;;;;;;14.40;9.80;;;;;;;14.40;nan;99381.09;5048183;28;20493;-80
2023/04/15 09:14:23;;;;;;;17.70;10.15;;;;;;;14.13;nan;99391.75;5040906;28;21619;-82
2023/04/15 09:17:09;;;;;;;16.10;10.02;;;;;;;13.99;nan;99395.47;5041150;28;20052;-80
2023/04/15 09:20:22;;;;;;;21.60;11.32;;;;;;;13.83;nan;99392.28;5041584;28;20075;-80
2023/04/15 09:23:16;;;;;;;16.20;9.98;;;;;;;14.64;nan;99397.22;5029801;28;20095;-82
2023/04/15 09:26:01;;;;;;;14.77;8.30;;;;;;;14.97;nan;99401.50;5038180;28;20403;-81
2023/04/15 09:28:45;;;;;;;17.88;9.52;;;;;;;13.26;nan;99402.44;5038330;28;20044;-81
2023/04/15 09:31:30;;;;;;;15.40;9.18;;;;;;;14.12;nan;99408.63;5039121;28;20125;-82
2023/04/15 09:34:14;;;;;;;14.30;7.82;;;;;;;14.00;nan;99397.09;5041624;28;20205;-82
2023/04/15 09:36:58;;;;;;;14.43;8.52;;;;;;;14.14;nan;99406.56;5043324;28;20132;-84
2023/04/15 09:39:49;;;;;;;16.55;8.73;;;;;;;14.38;nan;99414.00;5039679;28;20094;-83
2023/04/15 09:42:34;;;;;;;14.70;8.40;;;;;;;14.19;nan;99413.09;5036566;28;20043;-82
2023/04/15 09:45:19;;;;;;;15.15;8.52;;;;;;;14.49;nan;99425.72;5035397;28;20076;-82
2023/04/15 09:48:17;;;;;;;15.93;8.82;;;;;;;14.69;nan;99436.22;5041797;28;20035;-81
2023/04/15 09:51:01;;;;;;;13.75;7.30;;;;;;;14.66;nan;99444.56;5042497;28;20044;-81
2023/04/15 09:53:45;;;;;;;14.80;8.48;;;;;;;14.68;nan;99445.97;5039260;28;20047;-82
2023/04/15 09:56:41;;;;;;;16.30;8.70;;;;;;;15.07;nan;99445.97;5037319;28;20099;-78
2023/04/15 09:59:25;;;;;;;14.32;6.72;;;;;;;14.58;nan;99448.25;5029147;28;20086;-79
2023/04/15 10:02:11;;;;;;;15.13;7.85;;;;;;;15.08;nan;99450.25;5030838;28;20056;-79
2023/04/15 10:04:56;;;;;;;13.32;7.28;;;;;;;15.40;nan;99452.84;5032876;28;20461;-79
2023/04/15 10:07:41;;;;;;;12.43;8.50;;;;;;;14.88;nan;99453.00;5029696;28;20087;-80
2023/04/15 10:10:26;;;;;;;14.23;8.38;;;;;;;15.23;nan;99454.38;5029426;28;20044;-80
2023/04/15 10:13:12;;;;;;;15.25;9.23;;;;;;;14.77;nan;99470.34;5038173;28;20048;-83
2023/04/15 10:16:11;;;;;;;18.45;8.50;;;;;;;15.24;nan;99469.25;5039746;28;20160;-82
2023/04/15 10:18:56;;;;;;;14.73;7.95;;;;;;;15.22;nan;99472.09;5042182;28;20091;-82
2023/04/15 10:21:40;;;;;;;10.55;7.72;;;;;;;15.85;nan;99473.00;5039993;28;20068;-83
2023/04/15 10:24:25;;;;;;;13.60;8.45;;;;;;;15.64;nan;99473.41;5042989;28;20118;-82
2023/04/15 10:27:10;;;;;;;14.20;7.80;;;;;;;15.79;nan;99460.66;5033603;28;20614;-81
2023/04/15 10:29:55;;;;;;;12.93;8.10;;;;;;;16.44;nan;99466.50;5036285;28;20090;-82
2023/04/15 10:32:40;;;;;;;13.13;8.50;;;;;;;16.47;nan;99471.34;5036653;28;20117;-81
2023/04/15 10:35:25;;;;;;;17.23;8.73;;;;;;;17.68;nan;99474.13;5038577;28;20565;-83
2023/04/15 10:38:34;;;;;;;11.88;8.00;;;;;;;17.78;nan;99474.34;5039748;28;20335;-83
2023/04/15 10:41:19;;;;;;;12.13;6.43;;;;;;;17.96;nan;99473.41;5039124;28;20396;-83
2023/04/15 10:44:04;;;;;;;15.63;7.65;;;;;;;17.74;nan;99473.22;5041318;28;20150;-83
2023/04/15 10:46:50;;;;;;;9.98;7.47;;;;;;;16.80;nan;99475.44;5035782;28;20052;-82
2023/04/15 10:49:43;;;;;;;12.05;7.75;;;;;;;16.60;nan;99478.34;5041434;28;20546;-83
2023/04/15 10:52:28;;;;;;;9.80;5.90;;;;;;;15.68;nan;99480.69;5041262;28;20117;-83
2023/04/15 10:55:14;;;;;;;15.50;7.25;;;;;;;16.13;nan;99479.69;5039373;28;20053;-82
2023/04/15 10:58:01;;;;;;;19.50;7.70;;;;;;;16.06;nan;99481.59;5039724;28;20046;-82
2023/04/15 11:00:53;;;;;;;15.57;8.88;;;;;;;15.69;nan;99484.13;5038183;28;20071;-83
2023/04/15 11:03:41;;;;;;;13.30;8.93;;;;;;;15.65;nan;99491.72;5036472;28;20522;-82
2023/04/15 11:06:43;;;;;;;19.33;10.20;;;;;;;15.42;nan;99492.31;5043595;28;21313;-82
2023/04/15 11:09:32;;;;;;;12.77;9.23;;;;;;;15.59;nan;99497.06;5037912;28;20092;-82
2023/04/15 11:12:18;;;;;;;16.02;9.73;;;;;;;15.11;nan;99486.81;5032146;28;20032;-82
2023/04/15 11:15:31;;;;;;;12.50;8.82;;;;;;;14.78;nan;99498.38;5043460;28;20098;-82
2023/04/15 11:18:23;;;;;;;14.65;9.50;;;;;;;14.45;nan;99499.31;5043268;28;20070;-82
2023/04/15 11:21:08;;;;;;;15.93;9.80;;;;;;;15.45;nan;99497.16;5041760;28;20155;-83
2023/04/15 11:23:52;;;;;;;16.80;9.57;;;;;;;15.17;nan;99510.78;5039739;28;20075;-82
2023/04/15 11:26:36;;;;;;;19.45;9.85;;;;;;;15.51;nan;99511.38;5045334;28;20111;-82
2023/04/15 11:29:20;;;;;;;17.20;10.02;;;;;;;16.17;nan;99514.47;5044555;28;20120;-82
2023/04/15 11:32:06;;;;;;;14.35;9.30;;;;;;;16.04;nan;99515.41;5042716;28;20509;-84
2023/04/15 11:34:51;;;;;;;14.70;8.05;;;;;;;16.38;nan;99526.50;5036679;28;20045;-84
2023/04/15 11:37:35;;;;;;;14.27;8.35;;;;;;;16.38;nan;99523.00;5042819;28;20391;-84
2023/04/15 11:40:24;;;;;;;14.93;8.85;;;;;;;16.90;nan;99527.94;5041932;28;20095;-84
2023/04/15 11:43:20;;;;;;;15.23;8.18;;;;;;;16.75;nan;99530.16;5041292;28;20039;-85
2023/04/15 11:46:04;;;;;;;18.05;8.88;;;;;;;17.13;nan;99537.03;5040722;28;20051;-84
2023/04/15 11:48:48;;;;;;;15.45;8.70;;;;;;;17.28;nan;99534.75;5037611;28;20090;-84
2023/04/15 11:51:33;;;;;;;13.50;8.27;;;;;;;17.43;nan;99538.81;5047546;28;20039;-84
2023/04/15 11:54:18;;;;;;;12.80;8.55;;;;;;;17.89;nan;99539.13;5042577;28;20044;-84
2023/04/15 11:57:02;;;;;;;10.77;7.80;;;;;;;18.08;nan;99547.84;5038121;28;20056;-84
2023/04/15 11:59:46;;;;;;;12.20;8.70;;;;;;;18.44;nan;99544.31;5042418;28;20055;-84
2023/04/15 12:02:31;;;;;;;13.02;8.10;;;;;;;18.39;nan;99553.78;5043434;28;20040;-85
2023/04/15 12:05:15;;;;;;;15.02;9.48;;;;;;;18.25;nan;99555.06;5041801;28;20063;-85
2023/04/15 12:07:59;;;;;;;9.48;6.75;;;;;;;18.69;nan;99554.66;5042767;28;20043;-84
2023/04/15 12:10:43;;;;;;;11.32;8.25;;;;;;;18.82;nan;99565.03;5040885;28;20068;-84
2023/04/15 12:13:27;;;;;;;9.55;7.47;;;;;;;18.89;nan;99562.25;5040044;28;20138;-84
2023/04/15 12:16:11;;;;;;;7.53;6.60;;;;;;;18.96;nan;99567.41;5036622;28;20078;-84
2023/04/15 12:18:58;;;;;;;11.50;7.75;;;;;;;19.25;nan;99568.22;5038093;28;20121;-84
2023/04/15 12:21:47;;;;;;;9.55;7.63;;;;;;;18.91;nan;99570.78;5040404;28;20102;-83
2023/04/15 12:24:32;;;;;;;8.80;7.38;;;;;;;19.29;nan;99573.09;5032898;28;20076;-82
2023/04/15 12:27:16;;;;;;;9.45;7.32;;;;;;;19.48;nan;99563.84;5064003;28;20052;-83
2023/04/15 12:30:04;;;;;;;12.40;7.40;;;;;;;19.68;nan;99562.56;5044408;28;20036;-85
2023/04/15 12:32:51;;;;;;;11.93;8.02;;;;;;;20.08;nan;99560.78;5038012;28;20082;-88
2023/04/15 12:35:35;;;;;;;12.63;7.60;;;;;;;20.03;nan;99564.19;5042046;28;20103;-86
2023/04/15 12:38:19;;;;;;;9.90;7.20;;;;;;;19.71;nan;99567.41;5039014;28;20470;-86
2023/04/15 12:41:03;;;;;;;10.23;7.07;;;;;;;20.03;nan;99558.84;5041993;28;20119;-85
2023/04/15 12:43:47;;;;;;;11.82;7.20;;;;;;;20.03;nan;99563.41;5040442;28;20052;-84
2023/04/15 12:46:31;;;;;;;13.05;7.60;;;;;;;19.84;nan;99569.72;5036958;28;20044;-85
2023/04/15 12:49:18;;;;;;;11.23;8.65;;;;;;;20.32;nan;99566.72;5042498;28;20098;-85
2023/04/15 12:52:03;;;;;;;13.05;8.18;;;;;;;20.66;nan;99566.63;5034985;28;20053;-86
2023/04/15 12:54:47;;;;;;;15.15;8.23;;;;;;;20.37;nan;99571.34;5042677;28;20056;-85
2023/04/15 12:57:31;;;;;;;10.00;8.15;;;;;;;20.75;nan;99574.19;5043990;28;20125;-84
2023/04/15 13:00:16;;;;;;;9.43;8.43;;;;;;;20.62;nan;99586.84;5030375;28;20507;-85
2023/04/15 13:03:01;;;;;;;12.25;7.63;;;;;;;21.23;nan;99595.81;5038333;28;20459;-84
2023/04/15 13:05:45;;;;;;;10.30;8.00;;;;;;;21.58;nan;99596.41;5040512;28;20043;-84